sensor_id;sensor_type;location;lat;lon;timestamp;temperature;humidity
6206;DHT22;3136;48.788;9.772;2022-09-21T00:00:52;4.60;99.90
6206;DHT22;3136;48.788;9.772;2022-09-21T00:03:18;4.60;99.90
6206;DHT22;3136;48.788;9.772;2022-09-21T00:05:44;4.60;99.90
6206;DHT22;3136;48.788;9.772;2022-09-21T00:08:11;4.60;1.00
6206;DHT22;3136;48.788;9.772;2022-09-21T00:10:38;4.50;99.90
6206;DHT22;3136;48.788;9.772;2022-09-21T00:13:04;4.50;90.80
6206;DHT22;3136;48.788;9.772;2022-09-21T00:15:31;5.30;1.00
6206;DHT22;3136;48.788;9.772;2022-09-21T00:17:58;4.40;99.90
6206;DHT22;3136;48.788;9.772;2022-09-21T00:20:24;4.40;1.00
6206;DHT22;3136;48.788;9.772;2022-09-21T00:22:51;4.40;1.00
6206;DHT22;3136;48.788;9.772;2022-09-21T00:25:18;4.40;30.50
6206;DHT22;3136;48.788;9.772;2022-09-21T00:27:44;4.40;1.00
6206;DHT22;3136;48.788;9.772;2022-09-21T00:30:13;4.40;99.90
6206;DHT22;3136;48.788;9.772;2022-09-21T00:32:39;4.30;1.00
6206;DHT22;3136;48.788;9.772;2022-09-21T00:35:05;4.30;1.00
6206;DHT22;3136;48.788;9.772;2022-09-21T00:37:32;4.30;1.00
6206;DHT22;3136;48.788;9.772;2022-09-21T00:39:58;4.20;99.90
6206;DHT22;3136;48.788;9.772;2022-09-21T00:42:27;4.20;99.90
6206;DHT22;3136;48.788;9.772;2022-09-21T00:44:53;4.20;1.00
6206;DHT22;3136;48.788;9.772;2022-09-21T00:47:23;4.20;1.00
6206;DHT22;3136;48.788;9.772;2022-09-21T00:49:53;4.20;99.90
6206;DHT22;3136;48.788;9.772;2022-09-21T00:52:21;4.20;99.90
6206;DHT22;3136;48.788;9.772;2022-09-21T00:55:02;4.20;99.90
6206;DHT22;3136;48.788;9.772;2022-09-21T00:57:30;4.10;40.00
6206;DHT22;3136;48.788;9.772;2022-09-21T01:00:00;4.10;1.00
6206;DHT22;3136;48.788;9.772;2022-09-21T01:02:26;4.10;99.90
6206;DHT22;3136;48.788;9.772;2022-09-21T01:04:53;4.10;99.90
6206;DHT22;3136;48.788;9.772;2022-09-21T01:07:23;4.00;1.00
6206;DHT22;3136;48.788;9.772;2022-09-21T01:09:54;4.00;1.00
6206;DHT22;3136;48.788;9.772;2022-09-21T01:21:24;3.90;39.10
6206;DHT22;3136;48.788;9.772;2022-09-21T01:29:46;3.80;99.90
6206;DHT22;3136;48.788;9.772;2022-09-21T01:32:22;4.00;1.00
6206;DHT22;3136;48.788;9.772;2022-09-21T01:34:54;4.00;1.00
6206;DHT22;3136;48.788;9.772;2022-09-21T01:37:34;3.90;1.00
6206;DHT22;3136;48.788;9.772;2022-09-21T01:40:06;3.90;1.00
6206;DHT22;3136;48.788;9.772;2022-09-21T01:42:34;3.90;99.90
6206;DHT22;3136;48.788;9.772;2022-09-21T01:45:02;3.80;1.00
6206;DHT22;3136;48.788;9.772;2022-09-21T01:47:32;3.80;1.00
6206;DHT22;3136;48.788;9.772;2022-09-21T01:50:03;3.70;1.00
6206;DHT22;3136;48.788;9.772;2022-09-21T01:55:02;3.70;1.00
6206;DHT22;3136;48.788;9.772;2022-09-21T01:57:43;3.60;1.00
6206;DHT22;3136;48.788;9.772;2022-09-21T02:00:11;3.60;99.90
6206;DHT22;3136;48.788;9.772;2022-09-21T02:03:03;3.60;1.00
6206;DHT22;3136;48.788;9.772;2022-09-21T02:05:29;3.60;99.90
6206;DHT22;3136;48.788;9.772;2022-09-21T02:07:56;3.60;97.50
6206;DHT22;3136;48.788;9.772;2022-09-21T02:10:43;3.50;1.00
6206;DHT22;3136;48.788;9.772;2022-09-21T02:13:11;3.50;1.00
6206;DHT22;3136;48.788;9.772;2022-09-21T02:18:52;3.40;1.00
6206;DHT22;3136;48.788;9.772;2022-09-21T02:27:03;3.40;99.90
6206;DHT22;3136;48.788;9.772;2022-09-21T02:29:39;3.40;99.90
6206;DHT22;3136;48.788;9.772;2022-09-21T02:35:02;3.30;84.00
6206;DHT22;3136;48.788;9.772;2022-09-21T02:37:52;3.30;1.00
6206;DHT22;3136;48.788;9.772;2022-09-21T02:40:29;3.30;1.00
6206;DHT22;3136;48.788;9.772;2022-09-21T02:43:11;3.30;99.90
6206;DHT22;3136;48.788;9.772;2022-09-21T02:45:46;3.20;99.90
6206;DHT22;3136;48.788;9.772;2022-09-21T02:48:18;3.20;99.90
6206;DHT22;3136;48.788;9.772;2022-09-21T02:50:58;3.30;32.50
6206;DHT22;3136;48.788;9.772;2022-09-21T02:53:32;3.30;99.90
6206;DHT22;3136;48.788;9.772;2022-09-21T02:55:59;3.30;1.00
6206;DHT22;3136;48.788;9.772;2022-09-21T02:58:29;3.30;99.90
6206;DHT22;3136;48.788;9.772;2022-09-21T03:00:57;3.20;1.00
6206;DHT22;3136;48.788;9.772;2022-09-21T03:03:24;3.20;1.00
6206;DHT22;3136;48.788;9.772;2022-09-21T03:05:52;3.10;99.90
6206;DHT22;3136;48.788;9.772;2022-09-21T03:08:18;3.10;99.90
6206;DHT22;3136;48.788;9.772;2022-09-21T03:10:44;3.10;99.90
6206;DHT22;3136;48.788;9.772;2022-09-21T03:13:11;3.10;54.70
6206;DHT22;3136;48.788;9.772;2022-09-21T03:15:38;3.00;1.00
6206;DHT22;3136;48.788;9.772;2022-09-21T03:18:06;3.00;1.00
6206;DHT22;3136;48.788;9.772;2022-09-21T03:20:34;3.00;99.90
6206;DHT22;3136;48.788;9.772;2022-09-21T03:23:01;3.00;1.00
6206;DHT22;3136;48.788;9.772;2022-09-21T03:25:27;2.90;1.00
6206;DHT22;3136;48.788;9.772;2022-09-21T03:27:53;2.90;1.00
6206;DHT22;3136;48.788;9.772;2022-09-21T03:30:20;2.90;25.80
6206;DHT22;3136;48.788;9.772;2022-09-21T03:32:50;2.90;1.00
6206;DHT22;3136;48.788;9.772;2022-09-21T03:35:17;2.80;1.00
6206;DHT22;3136;48.788;9.772;2022-09-21T03:37:43;2.80;1.00
6206;DHT22;3136;48.788;9.772;2022-09-21T03:40:09;2.80;1.00
6206;DHT22;3136;48.788;9.772;2022-09-21T03:42:35;2.80;1.00
6206;DHT22;3136;48.788;9.772;2022-09-21T03:45:01;2.80;44.30
6206;DHT22;3136;48.788;9.772;2022-09-21T03:47:26;2.80;1.00
6206;DHT22;3136;48.788;9.772;2022-09-21T03:49:53;2.80;1.00
6206;DHT22;3136;48.788;9.772;2022-09-21T03:52:19;2.80;27.00
6206;DHT22;3136;48.788;9.772;2022-09-21T03:54:44;2.80;1.00
6206;DHT22;3136;48.788;9.772;2022-09-21T03:57:10;2.80;1.00
6206;DHT22;3136;48.788;9.772;2022-09-21T03:59:35;2.80;99.90
6206;DHT22;3136;48.788;9.772;2022-09-21T04:02:01;2.70;99.90
6206;DHT22;3136;48.788;9.772;2022-09-21T04:04:26;2.70;23.50
6206;DHT22;3136;48.788;9.772;2022-09-21T04:06:52;2.70;1.00
6206;DHT22;3136;48.788;9.772;2022-09-21T04:09:18;2.60;1.00
6206;DHT22;3136;48.788;9.772;2022-09-21T04:11:44;2.60;1.00
6206;DHT22;3136;48.788;9.772;2022-09-21T04:14:13;2.60;1.00
6206;DHT22;3136;48.788;9.772;2022-09-21T04:16:39;3.00;99.90
6206;DHT22;3136;48.788;9.772;2022-09-21T04:19:04;2.60;99.90
6206;DHT22;3136;48.788;9.772;2022-09-21T04:21:30;2.60;99.90
6206;DHT22;3136;48.788;9.772;2022-09-21T04:23:55;2.60;99.90
6206;DHT22;3136;48.788;9.772;2022-09-21T04:26:27;2.60;99.90
6206;DHT22;3136;48.788;9.772;2022-09-21T04:28:54;2.60;99.90
6206;DHT22;3136;48.788;9.772;2022-09-21T04:31:20;2.60;1.00
6206;DHT22;3136;48.788;9.772;2022-09-21T04:33:49;2.60;99.90
6206;DHT22;3136;48.788;9.772;2022-09-21T04:36:22;2.50;46.80
6206;DHT22;3136;48.788;9.772;2022-09-21T04:38:48;2.50;58.50
6206;DHT22;3136;48.788;9.772;2022-09-21T04:41:15;2.50;99.90
6206;DHT22;3136;48.788;9.772;2022-09-21T04:43:41;2.50;1.00
6206;DHT22;3136;48.788;9.772;2022-09-21T04:46:12;2.50;1.00
6206;DHT22;3136;48.788;9.772;2022-09-21T04:48:38;2.50;99.90
6206;DHT22;3136;48.788;9.772;2022-09-21T04:51:05;2.50;1.00
6206;DHT22;3136;48.788;9.772;2022-09-21T04:53:33;2.50;97.90
6206;DHT22;3136;48.788;9.772;2022-09-21T04:55:59;2.50;1.00
6206;DHT22;3136;48.788;9.772;2022-09-21T04:58:25;2.50;99.90
6206;DHT22;3136;48.788;9.772;2022-09-21T05:00:51;2.50;99.90
6206;DHT22;3136;48.788;9.772;2022-09-21T05:03:18;2.50;99.90
6206;DHT22;3136;48.788;9.772;2022-09-21T05:05:52;2.40;99.90
6206;DHT22;3136;48.788;9.772;2022-09-21T05:08:19;2.40;99.90
6206;DHT22;3136;48.788;9.772;2022-09-21T05:11:05;2.40;1.00
6206;DHT22;3136;48.788;9.772;2022-09-21T05:13:31;2.40;45.10
6206;DHT22;3136;48.788;9.772;2022-09-21T05:15:56;2.40;99.90
6206;DHT22;3136;48.788;9.772;2022-09-21T05:18:22;2.40;1.00
6206;DHT22;3136;48.788;9.772;2022-09-21T05:20:55;2.40;1.00
6206;DHT22;3136;48.788;9.772;2022-09-21T05:23:22;2.40;1.00
6206;DHT22;3136;48.788;9.772;2022-09-21T05:25:47;2.40;1.00
6206;DHT22;3136;48.788;9.772;2022-09-21T05:28:14;2.40;99.90
6206;DHT22;3136;48.788;9.772;2022-09-21T05:30:41;2.40;1.00
6206;DHT22;3136;48.788;9.772;2022-09-21T05:33:13;2.40;1.00
6206;DHT22;3136;48.788;9.772;2022-09-21T05:35:50;2.40;1.00
6206;DHT22;3136;48.788;9.772;2022-09-21T05:38:20;2.40;1.00
6206;DHT22;3136;48.788;9.772;2022-09-21T05:40:46;2.50;1.00
6206;DHT22;3136;48.788;9.772;2022-09-21T05:43:12;2.50;1.00
6206;DHT22;3136;48.788;9.772;2022-09-21T05:45:46;2.50;1.00
6206;DHT22;3136;48.788;9.772;2022-09-21T05:48:35;2.50;1.00
6206;DHT22;3136;48.788;9.772;2022-09-21T05:51:09;2.50;1.00
6206;DHT22;3136;48.788;9.772;2022-09-21T05:54:04;2.60;1.00
6206;DHT22;3136;48.788;9.772;2022-09-21T06:05:11;3.00;1.00
6206;DHT22;3136;48.788;9.772;2022-09-21T06:07:37;3.00;1.00
6206;DHT22;3136;48.788;9.772;2022-09-21T06:10:03;3.10;1.00
6206;DHT22;3136;48.788;9.772;2022-09-21T06:12:29;3.20;1.00
6206;DHT22;3136;48.788;9.772;2022-09-21T06:14:54;3.20;99.90
6206;DHT22;3136;48.788;9.772;2022-09-21T06:17:21;3.20;99.90
6206;DHT22;3136;48.788;9.772;2022-09-21T06:19:46;3.30;99.90
6206;DHT22;3136;48.788;9.772;2022-09-21T06:22:12;3.40;99.90
6206;DHT22;3136;48.788;9.772;2022-09-21T06:24:37;3.40;99.90
6206;DHT22;3136;48.788;9.772;2022-09-21T06:27:04;3.50;99.90
6206;DHT22;3136;48.788;9.772;2022-09-21T06:29:29;3.60;1.00
6206;DHT22;3136;48.788;9.772;2022-09-21T06:31:55;3.70;1.00
6206;DHT22;3136;48.788;9.772;2022-09-21T06:34:20;3.80;1.00
6206;DHT22;3136;48.788;9.772;2022-09-21T06:36:46;3.90;1.00
6206;DHT22;3136;48.788;9.772;2022-09-21T06:39:11;4.00;1.00
6206;DHT22;3136;48.788;9.772;2022-09-21T06:41:37;4.10;1.00
6206;DHT22;3136;48.788;9.772;2022-09-21T06:44:03;4.30;1.00
6206;DHT22;3136;48.788;9.772;2022-09-21T06:46:28;4.30;99.90
6206;DHT22;3136;48.788;9.772;2022-09-21T06:48:54;4.40;1.00
6206;DHT22;3136;48.788;9.772;2022-09-21T06:51:20;4.50;1.00
6206;DHT22;3136;48.788;9.772;2022-09-21T06:53:46;4.60;99.90
6206;DHT22;3136;48.788;9.772;2022-09-21T06:56:12;4.70;99.90
6206;DHT22;3136;48.788;9.772;2022-09-21T06:58:38;4.80;94.20
6206;DHT22;3136;48.788;9.772;2022-09-21T07:01:11;4.90;1.00
6206;DHT22;3136;48.788;9.772;2022-09-21T07:03:37;5.00;1.00
6206;DHT22;3136;48.788;9.772;2022-09-21T07:06:04;5.10;99.90
6206;DHT22;3136;48.788;9.772;2022-09-21T07:08:30;5.30;99.90
6206;DHT22;3136;48.788;9.772;2022-09-21T07:10:59;5.40;1.00
6206;DHT22;3136;48.788;9.772;2022-09-21T07:13:26;5.50;1.00
6206;DHT22;3136;48.788;9.772;2022-09-21T07:15:52;5.60;28.80
6206;DHT22;3136;48.788;9.772;2022-09-21T07:18:18;5.70;1.00
6206;DHT22;3136;48.788;9.772;2022-09-21T07:20:43;5.80;99.90
6206;DHT22;3136;48.788;9.772;2022-09-21T07:23:13;6.00;1.00
6206;DHT22;3136;48.788;9.772;2022-09-21T07:25:43;6.10;99.90
6206;DHT22;3136;48.788;9.772;2022-09-21T07:28:10;6.30;1.00
6206;DHT22;3136;48.788;9.772;2022-09-21T07:30:37;6.40;1.00
6206;DHT22;3136;48.788;9.772;2022-09-21T07:33:03;6.50;99.90
6206;DHT22;3136;48.788;9.772;2022-09-21T07:35:29;6.70;40.60
6206;DHT22;3136;48.788;9.772;2022-09-21T07:37:59;6.80;1.00
6206;DHT22;3136;48.788;9.772;2022-09-21T07:40:26;7.00;1.00
6206;DHT22;3136;48.788;9.772;2022-09-21T07:42:52;7.10;99.90
6206;DHT22;3136;48.788;9.772;2022-09-21T07:45:21;7.30;99.90
6206;DHT22;3136;48.788;9.772;2022-09-21T07:47:47;7.50;1.00
6206;DHT22;3136;48.788;9.772;2022-09-21T07:50:12;7.60;1.00
6206;DHT22;3136;48.788;9.772;2022-09-21T07:52:38;7.80;1.00
6206;DHT22;3136;48.788;9.772;2022-09-21T07:55:04;7.90;99.90
6206;DHT22;3136;48.788;9.772;2022-09-21T07:57:30;8.10;99.90
6206;DHT22;3136;48.788;9.772;2022-09-21T08:00:14;8.20;99.90
6206;DHT22;3136;48.788;9.772;2022-09-21T08:02:40;8.40;99.90
6206;DHT22;3136;48.788;9.772;2022-09-21T08:05:05;8.50;99.90
6206;DHT22;3136;48.788;9.772;2022-09-21T08:07:31;8.70;99.90
6206;DHT22;3136;48.788;9.772;2022-09-21T08:09:57;8.80;99.90
6206;DHT22;3136;48.788;9.772;2022-09-21T08:12:22;9.00;99.90
6206;DHT22;3136;48.788;9.772;2022-09-21T08:14:48;9.10;99.90
6206;DHT22;3136;48.788;9.772;2022-09-21T08:17:14;9.30;97.20
6206;DHT22;3136;48.788;9.772;2022-09-21T08:19:40;9.40;82.10
6206;DHT22;3136;48.788;9.772;2022-09-21T08:22:06;9.60;64.60
6206;DHT22;3136;48.788;9.772;2022-09-21T08:24:31;9.70;59.60
6206;DHT22;3136;48.788;9.772;2022-09-21T08:27:00;9.90;77.50
6206;DHT22;3136;48.788;9.772;2022-09-21T08:29:26;10.10;68.90
6206;DHT22;3136;48.788;9.772;2022-09-21T08:31:51;10.30;49.00
6206;DHT22;3136;48.788;9.772;2022-09-21T08:34:20;10.40;29.00
6206;DHT22;3136;48.788;9.772;2022-09-21T08:36:47;10.50;20.70
6206;DHT22;3136;48.788;9.772;2022-09-21T08:39:13;10.60;17.00
6206;DHT22;3136;48.788;9.772;2022-09-21T08:44:17;10.80;4.10
6206;DHT22;3136;48.788;9.772;2022-09-21T08:46:46;10.90;1.00
6206;DHT22;3136;48.788;9.772;2022-09-21T08:49:15;11.00;1.00
6206;DHT22;3136;48.788;9.772;2022-09-21T08:51:50;11.10;1.00
6206;DHT22;3136;48.788;9.772;2022-09-21T08:54:26;11.30;1.00
6206;DHT22;3136;48.788;9.772;2022-09-21T08:56:53;11.40;1.00
6206;DHT22;3136;48.788;9.772;2022-09-21T08:59:18;11.60;1.00
6206;DHT22;3136;48.788;9.772;2022-09-21T09:01:56;11.80;1.00
6206;DHT22;3136;48.788;9.772;2022-09-21T09:04:42;11.90;1.00
6206;DHT22;3136;48.788;9.772;2022-09-21T09:10:37;12.10;1.00
6206;DHT22;3136;48.788;9.772;2022-09-21T09:13:24;12.10;1.00
6206;DHT22;3136;48.788;9.772;2022-09-21T09:21:36;12.60;1.00
6206;DHT22;3136;48.788;9.772;2022-09-21T09:24:10;12.70;1.00
6206;DHT22;3136;48.788;9.772;2022-09-21T09:27:02;12.90;1.00
6206;DHT22;3136;48.788;9.772;2022-09-21T09:30:00;13.20;1.00
6206;DHT22;3136;48.788;9.772;2022-09-21T09:32:46;13.30;1.00
6206;DHT22;3136;48.788;9.772;2022-09-21T09:38:13;13.60;1.00
6206;DHT22;3136;48.788;9.772;2022-09-21T09:43:49;14.20;1.00
6206;DHT22;3136;48.788;9.772;2022-09-21T09:52:02;14.00;1.00
6206;DHT22;3136;48.788;9.772;2022-09-21T09:54:32;13.80;1.00
6206;DHT22;3136;48.788;9.772;2022-09-21T09:57:01;13.70;1.00
6206;DHT22;3136;48.788;9.772;2022-09-21T09:59:42;13.70;1.00
6206;DHT22;3136;48.788;9.772;2022-09-21T10:02:29;13.90;1.00
6206;DHT22;3136;48.788;9.772;2022-09-21T10:07:38;14.40;1.00
6206;DHT22;3136;48.788;9.772;2022-09-21T10:12:51;15.40;1.00
6206;DHT22;3136;48.788;9.772;2022-09-21T10:15:18;15.70;1.00
6206;DHT22;3136;48.788;9.772;2022-09-21T10:17:46;15.90;1.00
6206;DHT22;3136;48.788;9.772;2022-09-21T10:20:17;16.10;1.00
6206;DHT22;3136;48.788;9.772;2022-09-21T10:22:47;16.70;1.00
6206;DHT22;3136;48.788;9.772;2022-09-21T10:25:18;16.90;1.00
6206;DHT22;3136;48.788;9.772;2022-09-21T10:27:47;16.60;1.00
6206;DHT22;3136;48.788;9.772;2022-09-21T10:32:56;17.40;1.00
6206;DHT22;3136;48.788;9.772;2022-09-21T10:35:22;18.50;1.00
6206;DHT22;3136;48.788;9.772;2022-09-21T10:37:48;19.20;1.00
6206;DHT22;3136;48.788;9.772;2022-09-21T10:40:35;19.30;1.00
6206;DHT22;3136;48.788;9.772;2022-09-21T10:43:02;19.30;1.00
6206;DHT22;3136;48.788;9.772;2022-09-21T10:45:29;20.40;1.00
6206;DHT22;3136;48.788;9.772;2022-09-21T10:48:12;20.60;1.00
6206;DHT22;3136;48.788;9.772;2022-09-21T10:50:40;20.60;1.00
6206;DHT22;3136;48.788;9.772;2022-09-21T10:55:57;22.10;1.00
6206;DHT22;3136;48.788;9.772;2022-09-21T10:58:24;22.20;1.00
6206;DHT22;3136;48.788;9.772;2022-09-21T11:00:51;21.50;1.00
6206;DHT22;3136;48.788;9.772;2022-09-21T11:06:21;19.30;1.00
6206;DHT22;3136;48.788;9.772;2022-09-21T11:08:58;18.30;1.00
6206;DHT22;3136;48.788;9.772;2022-09-21T11:14:13;18.20;1.00
6206;DHT22;3136;48.788;9.772;2022-09-21T11:16:50;17.70;1.00
6206;DHT22;3136;48.788;9.772;2022-09-21T11:19:30;17.40;1.00
6206;DHT22;3136;48.788;9.772;2022-09-21T11:22:26;17.20;1.00
6206;DHT22;3136;48.788;9.772;2022-09-21T11:25:30;17.00;1.00
6206;DHT22;3136;48.788;9.772;2022-09-21T11:28:20;16.70;1.00
6206;DHT22;3136;48.788;9.772;2022-09-21T11:36:10;19.90;1.00
6206;DHT22;3136;48.788;9.772;2022-09-21T11:55:47;22.90;1.00
6206;DHT22;3136;48.788;9.772;2022-09-21T12:03:45;25.90;1.00
6206;DHT22;3136;48.788;9.772;2022-09-21T12:16:55;27.00;1.00
6206;DHT22;3136;48.788;9.772;2022-09-21T12:22:05;26.30;1.00
6206;DHT22;3136;48.788;9.772;2022-09-21T12:24:41;26.50;1.00
6206;DHT22;3136;48.788;9.772;2022-09-21T12:27:30;25.70;1.00
6206;DHT22;3136;48.788;9.772;2022-09-21T12:30:19;25.80;1.00
6206;DHT22;3136;48.788;9.772;2022-09-21T12:35:26;27.00;1.00
6206;DHT22;3136;48.788;9.772;2022-09-21T12:37:56;27.10;1.00
6206;DHT22;3136;48.788;9.772;2022-09-21T12:40:37;27.80;1.00
6206;DHT22;3136;48.788;9.772;2022-09-21T12:43:19;28.10;1.00
6206;DHT22;3136;48.788;9.772;2022-09-21T12:48:47;27.70;1.00
6206;DHT22;3136;48.788;9.772;2022-09-21T12:51:35;28.10;1.00
6206;DHT22;3136;48.788;9.772;2022-09-21T12:54:39;27.70;1.00
6206;DHT22;3136;48.788;9.772;2022-09-21T12:57:27;28.00;1.00
6206;DHT22;3136;48.788;9.772;2022-09-21T13:00:08;28.00;1.00
6206;DHT22;3136;48.788;9.772;2022-09-21T13:08:14;28.10;1.00
6206;DHT22;3136;48.788;9.772;2022-09-21T13:11:01;28.30;1.00
6206;DHT22;3136;48.788;9.772;2022-09-21T13:13:37;28.70;1.00
6206;DHT22;3136;48.788;9.772;2022-09-21T13:16:05;28.60;1.00
6206;DHT22;3136;48.788;9.772;2022-09-21T13:18:33;28.60;1.00
6206;DHT22;3136;48.788;9.772;2022-09-21T13:21:29;28.20;1.00
6206;DHT22;3136;48.788;9.772;2022-09-21T13:24:06;28.30;1.00
6206;DHT22;3136;48.788;9.772;2022-09-21T13:34:37;26.60;1.00
6206;DHT22;3136;48.788;9.772;2022-09-21T13:44:55;22.30;1.00
6206;DHT22;3136;48.788;9.772;2022-09-21T13:47:36;21.40;1.00
6206;DHT22;3136;48.788;9.772;2022-09-21T13:50:27;20.70;1.00
6206;DHT22;3136;48.788;9.772;2022-09-21T13:53:15;20.00;1.00
6206;DHT22;3136;48.788;9.772;2022-09-21T13:55:49;19.50;1.00
6206;DHT22;3136;48.788;9.772;2022-09-21T13:58:39;19.30;1.00
6206;DHT22;3136;48.788;9.772;2022-09-21T14:01:16;18.80;1.00
6206;DHT22;3136;48.788;9.772;2022-09-21T14:03:54;18.30;1.00
6206;DHT22;3136;48.788;9.772;2022-09-21T14:06:40;18.00;1.00
6206;DHT22;3136;48.788;9.772;2022-09-21T14:09:19;17.60;1.00
6206;DHT22;3136;48.788;9.772;2022-09-21T14:11:59;17.20;1.00
6206;DHT22;3136;48.788;9.772;2022-09-21T14:14:35;17.20;1.00
6206;DHT22;3136;48.788;9.772;2022-09-21T14:17:38;17.10;1.00
6206;DHT22;3136;48.788;9.772;2022-09-21T14:28:34;17.20;1.00
6206;DHT22;3136;48.788;9.772;2022-09-21T14:31:07;17.10;1.00
6206;DHT22;3136;48.788;9.772;2022-09-21T14:33:42;17.00;1.00
6206;DHT22;3136;48.788;9.772;2022-09-21T14:36:13;17.00;1.00
6206;DHT22;3136;48.788;9.772;2022-09-21T14:38:53;16.90;1.00
6206;DHT22;3136;48.788;9.772;2022-09-21T14:41:23;16.80;1.00
6206;DHT22;3136;48.788;9.772;2022-09-21T14:43:56;16.70;1.00
6206;DHT22;3136;48.788;9.772;2022-09-21T14:49:25;16.60;1.00
6206;DHT22;3136;48.788;9.772;2022-09-21T14:54:42;16.40;1.00
6206;DHT22;3136;48.788;9.772;2022-09-21T15:00:20;16.40;1.00
6206;DHT22;3136;48.788;9.772;2022-09-21T15:03:20;16.30;1.00
6206;DHT22;3136;48.788;9.772;2022-09-21T15:06:09;16.20;1.00
6206;DHT22;3136;48.788;9.772;2022-09-21T15:09:16;16.20;1.00
6206;DHT22;3136;48.788;9.772;2022-09-21T15:12:13;16.20;1.00
6206;DHT22;3136;48.788;9.772;2022-09-21T15:14:45;16.20;1.00
6206;DHT22;3136;48.788;9.772;2022-09-21T15:17:38;16.10;1.00
6206;DHT22;3136;48.788;9.772;2022-09-21T15:20:18;16.20;1.00
6206;DHT22;3136;48.788;9.772;2022-09-21T15:22:44;16.00;1.00
6206;DHT22;3136;48.788;9.772;2022-09-21T15:25:13;15.90;1.00
6206;DHT22;3136;48.788;9.772;2022-09-21T15:27:42;15.90;1.00
6206;DHT22;3136;48.788;9.772;2022-09-21T15:30:21;15.90;1.00
6206;DHT22;3136;48.788;9.772;2022-09-21T15:32:50;15.90;1.00
6206;DHT22;3136;48.788;9.772;2022-09-21T15:37:45;15.80;1.00
6206;DHT22;3136;48.788;9.772;2022-09-21T15:40:25;15.80;1.00
6206;DHT22;3136;48.788;9.772;2022-09-21T15:43:03;15.80;1.00
6206;DHT22;3136;48.788;9.772;2022-09-21T15:45:41;15.70;1.00
6206;DHT22;3136;48.788;9.772;2022-09-21T15:48:10;15.70;1.00
6206;DHT22;3136;48.788;9.772;2022-09-21T15:50:38;15.60;1.00
6206;DHT22;3136;48.788;9.772;2022-09-21T15:53:11;15.50;1.00
6206;DHT22;3136;48.788;9.772;2022-09-21T15:55:39;15.50;1.00
6206;DHT22;3136;48.788;9.772;2022-09-21T15:58:25;15.30;1.00
6206;DHT22;3136;48.788;9.772;2022-09-21T16:00:53;15.10;1.00
6206;DHT22;3136;48.788;9.772;2022-09-21T16:03:21;15.00;1.00
6206;DHT22;3136;48.788;9.772;2022-09-21T16:05:53;15.00;1.00
6206;DHT22;3136;48.788;9.772;2022-09-21T16:08:45;14.90;1.00
6206;DHT22;3136;48.788;9.772;2022-09-21T16:13:37;14.80;1.00
6206;DHT22;3136;48.788;9.772;2022-09-21T16:16:21;14.80;1.00
6206;DHT22;3136;48.788;9.772;2022-09-21T16:18:50;14.90;1.00
6206;DHT22;3136;48.788;9.772;2022-09-21T16:21:29;14.70;1.00
6206;DHT22;3136;48.788;9.772;2022-09-21T16:24:15;14.70;1.00
6206;DHT22;3136;48.788;9.772;2022-09-21T16:26:55;14.70;1.00
6206;DHT22;3136;48.788;9.772;2022-09-21T16:29:24;15.10;1.00
6206;DHT22;3136;48.788;9.772;2022-09-21T16:31:51;14.60;1.00
6206;DHT22;3136;48.788;9.772;2022-09-21T16:34:38;14.90;1.00
6206;DHT22;3136;48.788;9.772;2022-09-21T16:39:51;14.50;1.00
6206;DHT22;3136;48.788;9.772;2022-09-21T16:42:18;14.40;1.00
6206;DHT22;3136;48.788;9.772;2022-09-21T16:44:45;14.40;1.00
6206;DHT22;3136;48.788;9.772;2022-09-21T16:47:17;14.20;1.00
6206;DHT22;3136;48.788;9.772;2022-09-21T16:49:53;14.10;1.00
6206;DHT22;3136;48.788;9.772;2022-09-21T16:52:24;14.00;1.00
6206;DHT22;3136;48.788;9.772;2022-09-21T16:54:50;13.80;1.00
6206;DHT22;3136;48.788;9.772;2022-09-21T16:57:17;13.60;1.00
6206;DHT22;3136;48.788;9.772;2022-09-21T16:59:43;13.50;1.00
6206;DHT22;3136;48.788;9.772;2022-09-21T17:02:10;13.20;1.00
6206;DHT22;3136;48.788;9.772;2022-09-21T17:04:38;12.90;1.00
6206;DHT22;3136;48.788;9.772;2022-09-21T17:07:04;12.60;1.00
6206;DHT22;3136;48.788;9.772;2022-09-21T17:11:58;12.10;1.00
6206;DHT22;3136;48.788;9.772;2022-09-21T17:14:29;11.90;1.00
6206;DHT22;3136;48.788;9.772;2022-09-21T17:17:01;11.70;1.00
6206;DHT22;3136;48.788;9.772;2022-09-21T17:19:34;11.50;1.00
6206;DHT22;3136;48.788;9.772;2022-09-21T17:22:02;11.30;1.00
6206;DHT22;3136;48.788;9.772;2022-09-21T17:24:28;11.10;1.00
6206;DHT22;3136;48.788;9.772;2022-09-21T17:26:54;11.00;1.00
6206;DHT22;3136;48.788;9.772;2022-09-21T17:29:25;10.80;1.00
6206;DHT22;3136;48.788;9.772;2022-09-21T17:31:54;10.60;1.00
6206;DHT22;3136;48.788;9.772;2022-09-21T17:34:26;11.40;1.00
6206;DHT22;3136;48.788;9.772;2022-09-21T17:36:52;10.30;1.00
6206;DHT22;3136;48.788;9.772;2022-09-21T17:39:20;10.20;1.00
6206;DHT22;3136;48.788;9.772;2022-09-21T17:42:19;10.10;1.00
6206;DHT22;3136;48.788;9.772;2022-09-21T17:45:01;9.90;1.00
6206;DHT22;3136;48.788;9.772;2022-09-21T17:47:30;9.80;1.00
6206;DHT22;3136;48.788;9.772;2022-09-21T17:50:23;9.70;1.00
6206;DHT22;3136;48.788;9.772;2022-09-21T17:52:50;9.60;1.00
6206;DHT22;3136;48.788;9.772;2022-09-21T17:55:35;9.50;1.00
6206;DHT22;3136;48.788;9.772;2022-09-21T17:58:29;9.40;1.00
6206;DHT22;3136;48.788;9.772;2022-09-21T18:01:07;9.20;1.00
6206;DHT22;3136;48.788;9.772;2022-09-21T18:03:37;9.10;1.00
6206;DHT22;3136;48.788;9.772;2022-09-21T18:06:08;9.10;1.00
6206;DHT22;3136;48.788;9.772;2022-09-21T18:08:34;9.00;1.00
6206;DHT22;3136;48.788;9.772;2022-09-21T18:14:05;8.80;1.00
6206;DHT22;3136;48.788;9.772;2022-09-21T18:19:45;8.60;4.20
6206;DHT22;3136;48.788;9.772;2022-09-21T18:22:34;8.50;2.40
6206;DHT22;3136;48.788;9.772;2022-09-21T18:25:54;8.40;2.90
6206;DHT22;3136;48.788;9.772;2022-09-21T18:27:56;8.30;5.40
6206;DHT22;3136;48.788;9.772;2022-09-21T18:30:23;8.20;7.70
6206;DHT22;3136;48.788;9.772;2022-09-21T18:33:11;9.10;18.80
6206;DHT22;3136;48.788;9.772;2022-09-21T18:35:46;8.10;24.20
6206;DHT22;3136;48.788;9.772;2022-09-21T18:38:39;8.00;28.30
6206;DHT22;3136;48.788;9.772;2022-09-21T18:41:23;7.90;30.60
6206;DHT22;3136;48.788;9.772;2022-09-21T18:44:02;7.80;38.80
6206;DHT22;3136;48.788;9.772;2022-09-21T18:55:29;7.50;57.80
6206;DHT22;3136;48.788;9.772;2022-09-21T18:57:58;7.50;60.70
6206;DHT22;3136;48.788;9.772;2022-09-21T19:00:26;7.40;66.70
6206;DHT22;3136;48.788;9.772;2022-09-21T19:02:56;7.30;81.70
6206;DHT22;3136;48.788;9.772;2022-09-21T19:05:22;7.30;98.60
6206;DHT22;3136;48.788;9.772;2022-09-21T19:08:03;7.20;99.90
6206;DHT22;3136;48.788;9.772;2022-09-21T19:10:42;7.20;99.90
6206;DHT22;3136;48.788;9.772;2022-09-21T19:13:45;7.10;99.90
6206;DHT22;3136;48.788;9.772;2022-09-21T19:21:54;6.90;99.90
6206;DHT22;3136;48.788;9.772;2022-09-21T19:24:37;6.90;99.90
6206;DHT22;3136;48.788;9.772;2022-09-21T19:30:10;6.80;99.90
6206;DHT22;3136;48.788;9.772;2022-09-21T19:32:48;6.80;99.90
6206;DHT22;3136;48.788;9.772;2022-09-21T19:35:24;6.70;99.90
6206;DHT22;3136;48.788;9.772;2022-09-21T19:37:51;6.70;99.90
6206;DHT22;3136;48.788;9.772;2022-09-21T19:40:20;6.60;99.90
6206;DHT22;3136;48.788;9.772;2022-09-21T19:45:31;6.50;99.90
6206;DHT22;3136;48.788;9.772;2022-09-21T19:48:07;6.40;99.90
6206;DHT22;3136;48.788;9.772;2022-09-21T19:53:05;6.40;99.90
6206;DHT22;3136;48.788;9.772;2022-09-21T19:55:49;6.40;99.90
6206;DHT22;3136;48.788;9.772;2022-09-21T19:58:33;6.40;99.90
6206;DHT22;3136;48.788;9.772;2022-09-21T20:01:19;6.30;99.90
6206;DHT22;3136;48.788;9.772;2022-09-21T20:03:46;6.30;99.90
6206;DHT22;3136;48.788;9.772;2022-09-21T20:09:16;6.10;99.90
6206;DHT22;3136;48.788;9.772;2022-09-21T20:17:01;6.00;99.90
6206;DHT22;3136;48.788;9.772;2022-09-21T20:19:57;6.00;99.90
6206;DHT22;3136;48.788;9.772;2022-09-21T20:22:38;5.90;99.90
6206;DHT22;3136;48.788;9.772;2022-09-21T20:27:43;5.80;99.90